sensor_id;sensor_type;location;lat;lon;timestamp;temperature;humidity
75380;HTU21D;65641;44.714;37.756;2023-10-09T02:45:41;11.34;73.11
75380;HTU21D;65641;44.714;37.756;2023-10-09T02:46:53;11.34;73.20
75380;HTU21D;65641;44.714;37.756;2023-10-09T02:48:00;11.33;73.28
75380;HTU21D;65641;44.714;37.756;2023-10-09T02:49:12;11.33;73.26
75380;HTU21D;65641;44.714;37.756;2023-10-09T02:50:18;11.33;73.24
75380;HTU21D;65641;44.714;37.756;2023-10-09T02:51:26;11.32;73.28
75380;HTU21D;65641;44.714;37.756;2023-10-09T02:52:30;11.32;73.28
75380;HTU21D;65641;44.714;37.756;2023-10-09T02:53:44;11.31;73.34
75380;HTU21D;65641;44.714;37.756;2023-10-09T02:54:52;11.31;73.34
75380;HTU21D;65641;44.714;37.756;2023-10-09T02:56:15;11.31;73.35
75380;HTU21D;65641;44.714;37.756;2023-10-09T02:57:21;11.31;73.41
75380;HTU21D;65641;44.714;37.756;2023-10-09T02:58:29;11.32;73.30
75380;HTU21D;65641;44.714;37.756;2023-10-09T02:59:35;11.31;73.34
75380;HTU21D;65641;44.714;37.756;2023-10-09T03:00:41;11.31;73.39
75380;HTU21D;65641;44.714;37.756;2023-10-09T03:01:48;11.30;73.38
75380;HTU21D;65641;44.714;37.756;2023-10-09T03:02:51;11.30;73.41
75380;HTU21D;65641;44.714;37.756;2023-10-09T03:03:55;11.28;73.39
75380;HTU21D;65641;44.714;37.756;2023-10-09T03:05:02;11.27;73.45
75380;HTU21D;65641;44.714;37.756;2023-10-09T03:06:06;11.26;73.42
75380;HTU21D;65641;44.714;37.756;2023-10-09T03:07:14;11.26;73.45
75380;HTU21D;65641;44.714;37.756;2023-10-09T03:08:17;11.24;73.44
75380;HTU21D;65641;44.714;37.756;2023-10-09T03:09:22;11.25;73.41
75380;HTU21D;65641;44.714;37.756;2023-10-09T03:10:32;11.22;73.40
75380;HTU21D;65641;44.714;37.756;2023-10-09T03:11:38;11.23;73.51
75380;HTU21D;65641;44.714;37.756;2023-10-09T03:12:41;11.23;73.43
75380;HTU21D;65641;44.714;37.756;2023-10-09T03:13:46;11.23;73.38
75380;HTU21D;65641;44.714;37.756;2023-10-09T03:14:50;11.22;73.51
75380;HTU21D;65641;44.714;37.756;2023-10-09T03:15:53;11.20;73.42
75380;HTU21D;65641;44.714;37.756;2023-10-09T03:16:57;11.20;73.47
75380;HTU21D;65641;44.714;37.756;2023-10-09T03:18:02;11.22;73.46
75380;HTU21D;65641;44.714;37.756;2023-10-09T03:19:08;11.23;73.44
75380;HTU21D;65641;44.714;37.756;2023-10-09T03:20:14;11.23;73.39
75380;HTU21D;65641;44.714;37.756;2023-10-09T03:21:21;11.23;73.48
75380;HTU21D;65641;44.714;37.756;2023-10-09T03:22:24;11.22;73.47
75380;HTU21D;65641;44.714;37.756;2023-10-09T03:23:27;11.22;73.44
75380;HTU21D;65641;44.714;37.756;2023-10-09T03:24:34;11.22;73.52
75380;HTU21D;65641;44.714;37.756;2023-10-09T03:25:38;11.20;73.51
75380;HTU21D;65641;44.714;37.756;2023-10-09T03:26:41;11.20;73.44
75380;HTU21D;65641;44.714;37.756;2023-10-09T03:27:48;11.23;73.38
75380;HTU21D;65641;44.714;37.756;2023-10-09T03:28:51;11.23;73.44
75380;HTU21D;65641;44.714;37.756;2023-10-09T03:29:57;11.23;73.40
75380;HTU21D;65641;44.714;37.756;2023-10-09T03:31:01;11.23;73.39
75380;HTU21D;65641;44.714;37.756;2023-10-09T03:32:05;11.23;73.33
75380;HTU21D;65641;44.714;37.756;2023-10-09T03:33:09;11.23;73.32
75380;HTU21D;65641;44.714;37.756;2023-10-09T03:34:14;11.22;73.26
75380;HTU21D;65641;44.714;37.756;2023-10-09T03:35:18;11.23;73.19
75380;HTU21D;65641;44.714;37.756;2023-10-09T03:36:30;11.24;73.19
75380;HTU21D;65641;44.714;37.756;2023-10-09T03:37:33;11.23;73.14
75380;HTU21D;65641;44.714;37.756;2023-10-09T03:38:38;11.23;73.08
75380;HTU21D;65641;44.714;37.756;2023-10-09T03:39:41;11.24;73.09
75380;HTU21D;65641;44.714;37.756;2023-10-09T03:40:45;11.23;73.09
75380;HTU21D;65641;44.714;37.756;2023-10-09T03:41:52;11.23;73.02
75380;HTU21D;65641;44.714;37.756;2023-10-09T03:42:58;11.24;72.98
75380;HTU21D;65641;44.714;37.756;2023-10-09T03:44:04;11.24;72.94
75380;HTU21D;65641;44.714;37.756;2023-10-09T03:45:09;11.24;72.87
75380;HTU21D;65641;44.714;37.756;2023-10-09T03:46:22;11.25;72.87
75380;HTU21D;65641;44.714;37.756;2023-10-09T03:47:29;11.25;72.76
75380;HTU21D;65641;44.714;37.756;2023-10-09T03:48:32;11.28;72.74
75380;HTU21D;65641;44.714;37.756;2023-10-09T03:49:39;11.31;72.71
75380;HTU21D;65641;44.714;37.756;2023-10-09T03:50:43;11.32;72.67
75380;HTU21D;65641;44.714;37.756;2023-10-09T03:51:49;11.34;72.65
75380;HTU21D;65641;44.714;37.756;2023-10-09T03:52:53;11.36;72.64
75380;HTU21D;65641;44.714;37.756;2023-10-09T03:53:58;11.39;72.55
75380;HTU21D;65641;44.714;37.756;2023-10-09T03:55:01;11.40;72.45
75380;HTU21D;65641;44.714;37.756;2023-10-09T03:56:06;11.42;72.41
75380;HTU21D;65641;44.714;37.756;2023-10-09T03:57:15;11.44;72.33
75380;HTU21D;65641;44.714;37.756;2023-10-09T03:58:21;11.45;72.29
75380;HTU21D;65641;44.714;37.756;2023-10-09T03:59:24;11.48;72.28
75380;HTU21D;65641;44.714;37.756;2023-10-09T04:00:33;11.51;72.13
75380;HTU21D;65641;44.714;37.756;2023-10-09T04:01:49;11.53;72.15
75380;HTU21D;65641;44.714;37.756;2023-10-09T04:02:56;11.52;72.09
75380;HTU21D;65641;44.714;37.756;2023-10-09T04:04:00;11.53;72.03
75380;HTU21D;65641;44.714;37.756;2023-10-09T04:05:04;11.56;72.00
75380;HTU21D;65641;44.714;37.756;2023-10-09T04:06:11;11.57;71.84
75380;HTU21D;65641;44.714;37.756;2023-10-09T04:07:15;11.58;71.74
75380;HTU21D;65641;44.714;37.756;2023-10-09T04:08:21;11.60;71.73
75380;HTU21D;65641;44.714;37.756;2023-10-09T04:09:31;11.63;71.60
75380;HTU21D;65641;44.714;37.756;2023-10-09T04:10:42;11.66;71.59
75380;HTU21D;65641;44.714;37.756;2023-10-09T04:12:00;11.68;71.47
75380;HTU21D;65641;44.714;37.756;2023-10-09T04:13:13;11.71;71.28
75380;HTU21D;65641;44.714;37.756;2023-10-09T04:14:25;11.76;71.17
75380;HTU21D;65641;44.714;37.756;2023-10-09T04:15:37;11.77;71.09
75380;HTU21D;65641;44.714;37.756;2023-10-09T04:16:41;11.78;70.97
75380;HTU21D;65641;44.714;37.756;2023-10-09T04:18:06;11.82;70.96
75380;HTU21D;65641;44.714;37.756;2023-10-09T04:19:18;11.83;70.83
75380;HTU21D;65641;44.714;37.756;2023-10-09T04:20:27;11.84;70.83
75380;HTU21D;65641;44.714;37.756;2023-10-09T04:21:37;11.84;70.79
75380;HTU21D;65641;44.714;37.756;2023-10-09T04:22:41;11.86;70.76
75380;HTU21D;65641;44.714;37.756;2023-10-09T04:23:54;11.86;70.74
75380;HTU21D;65641;44.714;37.756;2023-10-09T04:25:12;11.87;70.73
75380;HTU21D;65641;44.714;37.756;2023-10-09T04:26:19;11.89;70.68
75380;HTU21D;65641;44.714;37.756;2023-10-09T04:27:23;11.90;70.67
75380;HTU21D;65641;44.714;37.756;2023-10-09T04:28:38;11.92;70.64
75380;HTU21D;65641;44.714;37.756;2023-10-09T04:29:45;11.94;70.60
75380;HTU21D;65641;44.714;37.756;2023-10-09T04:30:52;11.97;70.55
75380;HTU21D;65641;44.714;37.756;2023-10-09T04:31:59;11.98;70.52
75380;HTU21D;65641;44.714;37.756;2023-10-09T04:33:03;11.98;70.50
75380;HTU21D;65641;44.714;37.756;2023-10-09T04:34:14;12.01;70.46
75380;HTU21D;65641;44.714;37.756;2023-10-09T04:35:31;12.03;70.42
75380;HTU21D;65641;44.714;37.756;2023-10-09T04:36:36;12.03;70.35
75380;HTU21D;65641;44.714;37.756;2023-10-09T04:37:49;12.07;70.31
75380;HTU21D;65641;44.714;37.756;2023-10-09T04:38:59;12.08;70.19
75380;HTU21D;65641;44.714;37.756;2023-10-09T04:40:22;12.11;70.16
75380;HTU21D;65641;44.714;37.756;2023-10-09T04:41:51;12.13;70.13
75380;HTU21D;65641;44.714;37.756;2023-10-09T04:42:54;12.15;70.10
75380;HTU21D;65641;44.714;37.756;2023-10-09T04:44:09;12.15;70.10
75380;HTU21D;65641;44.714;37.756;2023-10-09T04:45:23;12.18;70.04
75380;HTU21D;65641;44.714;37.756;2023-10-09T04:46:45;12.20;70.04
75380;HTU21D;65641;44.714;37.756;2023-10-09T04:48:09;12.20;70.00
75380;HTU21D;65641;44.714;37.756;2023-10-09T04:49:13;12.21;70.03
75380;HTU21D;65641;44.714;37.756;2023-10-09T04:50:31;12.25;69.94
75380;HTU21D;65641;44.714;37.756;2023-10-09T04:51:34;12.26;69.92
75380;HTU21D;65641;44.714;37.756;2023-10-09T04:52:39;12.30;69.84
75380;HTU21D;65641;44.714;37.756;2023-10-09T04:53:43;12.31;69.76
75380;HTU21D;65641;44.714;37.756;2023-10-09T04:55:06;12.34;69.71
75380;HTU21D;65641;44.714;37.756;2023-10-09T04:56:10;12.36;69.65
75380;HTU21D;65641;44.714;37.756;2023-10-09T04:57:19;12.38;69.59
75380;HTU21D;65641;44.714;37.756;2023-10-09T04:58:23;12.40;69.56
75380;HTU21D;65641;44.714;37.756;2023-10-09T04:59:27;12.43;69.46
75380;HTU21D;65641;44.714;37.756;2023-10-09T05:00:31;12.47;69.39
75380;HTU21D;65641;44.714;37.756;2023-10-09T05:01:34;12.48;69.37
75380;HTU21D;65641;44.714;37.756;2023-10-09T05:02:46;12.49;69.29
75380;HTU21D;65641;44.714;37.756;2023-10-09T05:03:58;12.53;69.28
75380;HTU21D;65641;44.714;37.756;2023-10-09T05:05:06;12.56;69.15
75380;HTU21D;65641;44.714;37.756;2023-10-09T05:06:38;12.61;69.07
75380;HTU21D;65641;44.714;37.756;2023-10-09T05:08:02;12.65;68.97
75380;HTU21D;65641;44.714;37.756;2023-10-09T05:09:23;12.69;68.80
75380;HTU21D;65641;44.714;37.756;2023-10-09T05:10:27;12.72;68.78
75380;HTU21D;65641;44.714;37.756;2023-10-09T05:11:30;12.74;68.70
75380;HTU21D;65641;44.714;37.756;2023-10-09T05:12:51;12.77;68.56
75380;HTU21D;65641;44.714;37.756;2023-10-09T05:14:01;12.80;68.52
75380;HTU21D;65641;44.714;37.756;2023-10-09T05:15:17;12.81;68.47
75380;HTU21D;65641;44.714;37.756;2023-10-09T05:16:20;12.84;68.36
75380;HTU21D;65641;44.714;37.756;2023-10-09T05:17:29;12.86;68.41
75380;HTU21D;65641;44.714;37.756;2023-10-09T05:18:37;12.88;68.30
75380;HTU21D;65641;44.714;37.756;2023-10-09T05:19:40;12.89;68.36
75380;HTU21D;65641;44.714;37.756;2023-10-09T05:20:57;12.92;68.30
75380;HTU21D;65641;44.714;37.756;2023-10-09T05:22:22;12.95;68.20
75380;HTU21D;65641;44.714;37.756;2023-10-09T05:23:41;12.96;68.19
75380;HTU21D;65641;44.714;37.756;2023-10-09T05:25:14;13.02;68.10
75380;HTU21D;65641;44.714;37.756;2023-10-09T05:27:55;13.06;67.99
75380;HTU21D;65641;44.714;37.756;2023-10-09T05:29:25;13.09;67.85
75380;HTU21D;65641;44.714;37.756;2023-10-09T05:30:31;13.14;67.86
75380;HTU21D;65641;44.714;37.756;2023-10-09T05:31:36;13.17;67.81
75380;HTU21D;65641;44.714;37.756;2023-10-09T05:32:59;13.21;67.76
75380;HTU21D;65641;44.714;37.756;2023-10-09T05:34:23;13.26;67.65
75380;HTU21D;65641;44.714;37.756;2023-10-09T05:35:36;13.32;67.48
75380;HTU21D;65641;44.714;37.756;2023-10-09T05:36:42;13.36;67.40
75380;HTU21D;65641;44.714;37.756;2023-10-09T05:37:50;13.39;67.33
75380;HTU21D;65641;44.714;37.756;2023-10-09T05:39:04;13.40;67.29
75380;HTU21D;65641;44.714;37.756;2023-10-09T05:40:21;13.43;67.17
75380;HTU21D;65641;44.714;37.756;2023-10-09T05:41:34;13.46;67.10
75380;HTU21D;65641;44.714;37.756;2023-10-09T05:42:56;13.53;67.02
75380;HTU21D;65641;44.714;37.756;2023-10-09T05:44:03;13.58;66.87
75380;HTU21D;65641;44.714;37.756;2023-10-09T05:45:26;13.65;66.64
75380;HTU21D;65641;44.714;37.756;2023-10-09T05:46:48;13.69;66.52
75380;HTU21D;65641;44.714;37.756;2023-10-09T05:48:11;13.76;66.33
75380;HTU21D;65641;44.714;37.756;2023-10-09T05:49:21;13.80;66.29
75380;HTU21D;65641;44.714;37.756;2023-10-09T05:50:28;13.83;66.07
75380;HTU21D;65641;44.714;37.756;2023-10-09T05:51:31;13.84;66.19
75380;HTU21D;65641;44.714;37.756;2023-10-09T05:52:47;13.85;66.10
75380;HTU21D;65641;44.714;37.756;2023-10-09T05:53:56;13.85;66.12
75380;HTU21D;65641;44.714;37.756;2023-10-09T05:55:23;13.86;66.14
75380;HTU21D;65641;44.714;37.756;2023-10-09T05:56:27;13.85;66.17
75380;HTU21D;65641;44.714;37.756;2023-10-09T05:57:49;13.86;66.24
75380;HTU21D;65641;44.714;37.756;2023-10-09T05:58:59;13.89;66.23
75380;HTU21D;65641;44.714;37.756;2023-10-09T06:00:24;13.91;66.13
75380;HTU21D;65641;44.714;37.756;2023-10-09T06:01:46;13.92;66.05
75380;HTU21D;65641;44.714;37.756;2023-10-09T06:03:19;13.94;66.12
75380;HTU21D;65641;44.714;37.756;2023-10-09T06:04:23;13.95;66.08
75380;HTU21D;65641;44.714;37.756;2023-10-09T06:05:48;13.95;66.01
75380;HTU21D;65641;44.714;37.756;2023-10-09T06:07:04;13.96;66.03
75380;HTU21D;65641;44.714;37.756;2023-10-09T06:08:15;13.98;65.92
75380;HTU21D;65641;44.714;37.756;2023-10-09T06:09:27;13.99;65.81
75380;HTU21D;65641;44.714;37.756;2023-10-09T06:10:49;14.00;65.85
75380;HTU21D;65641;44.714;37.756;2023-10-09T06:12:08;14.00;65.73
75380;HTU21D;65641;44.714;37.756;2023-10-09T06:13:36;14.00;65.67
75380;HTU21D;65641;44.714;37.756;2023-10-09T06:14:48;14.00;65.69
75380;HTU21D;65641;44.714;37.756;2023-10-09T06:16:01;14.01;65.65
75380;HTU21D;65641;44.714;37.756;2023-10-09T06:17:22;14.01;65.66
75380;HTU21D;65641;44.714;37.756;2023-10-09T06:18:26;14.03;65.53
75380;HTU21D;65641;44.714;37.756;2023-10-09T06:19:35;14.06;65.54
75380;HTU21D;65641;44.714;37.756;2023-10-09T06:20:46;14.08;65.45
75380;HTU21D;65641;44.714;37.756;2023-10-09T06:22:10;14.12;65.42
75380;HTU21D;65641;44.714;37.756;2023-10-09T06:23:42;14.15;65.40
75380;HTU21D;65641;44.714;37.756;2023-10-09T06:25:04;14.14;65.33
75380;HTU21D;65641;44.714;37.756;2023-10-09T06:26:15;14.14;65.38
75380;HTU21D;65641;44.714;37.756;2023-10-09T06:27:28;14.18;65.28
75380;HTU21D;65641;44.714;37.756;2023-10-09T06:28:34;14.19;65.19
75380;HTU21D;65641;44.714;37.756;2023-10-09T06:29:41;14.20;65.09
75380;HTU21D;65641;44.714;37.756;2023-10-09T06:30:47;14.21;65.09
75380;HTU21D;65641;44.714;37.756;2023-10-09T06:31:51;14.22;65.07
75380;HTU21D;65641;44.714;37.756;2023-10-09T06:33:01;14.25;65.02
75380;HTU21D;65641;44.714;37.756;2023-10-09T06:34:04;14.28;64.92
75380;HTU21D;65641;44.714;37.756;2023-10-09T06:35:18;14.32;64.72
75380;HTU21D;65641;44.714;37.756;2023-10-09T06:36:25;14.32;64.63
75380;HTU21D;65641;44.714;37.756;2023-10-09T06:37:34;14.33;64.59
75380;HTU21D;65641;44.714;37.756;2023-10-09T06:38:37;14.34;64.43
75380;HTU21D;65641;44.714;37.756;2023-10-09T06:40:04;14.35;64.13
75380;HTU21D;65641;44.714;37.756;2023-10-09T06:41:33;14.35;64.07
75380;HTU21D;65641;44.714;37.756;2023-10-09T06:42:48;14.39;63.59
75380;HTU21D;65641;44.714;37.756;2023-10-09T06:43:55;14.37;63.45
75380;HTU21D;65641;44.714;37.756;2023-10-09T06:45:02;14.39;63.41
75380;HTU21D;65641;44.714;37.756;2023-10-09T06:46:17;14.39;63.02
75380;HTU21D;65641;44.714;37.756;2023-10-09T06:47:21;14.41;62.56
75380;HTU21D;65641;44.714;37.756;2023-10-09T06:48:27;14.41;62.17
75380;HTU21D;65641;44.714;37.756;2023-10-09T06:49:42;14.43;62.24
75380;HTU21D;65641;44.714;37.756;2023-10-09T06:51:09;14.44;62.00
75380;HTU21D;65641;44.714;37.756;2023-10-09T06:52:38;14.45;62.10
75380;HTU21D;65641;44.714;37.756;2023-10-09T06:54:00;14.50;61.89
75380;HTU21D;65641;44.714;37.756;2023-10-09T06:55:12;14.52;60.86
75380;HTU21D;65641;44.714;37.756;2023-10-09T06:56:26;14.55;61.21
75380;HTU21D;65641;44.714;37.756;2023-10-09T06:57:32;14.58;61.15
75380;HTU21D;65641;44.714;37.756;2023-10-09T06:58:51;14.59;60.85
75380;HTU21D;65641;44.714;37.756;2023-10-09T06:59:58;14.60;60.16
75380;HTU21D;65641;44.714;37.756;2023-10-09T07:01:33;14.62;60.08
75380;HTU21D;65641;44.714;37.756;2023-10-09T07:02:45;14.66;59.97
75380;HTU21D;65641;44.714;37.756;2023-10-09T07:03:49;14.71;60.27
75380;HTU21D;65641;44.714;37.756;2023-10-09T07:04:55;14.77;59.63
75380;HTU21D;65641;44.714;37.756;2023-10-09T07:06:06;14.82;58.99
75380;HTU21D;65641;44.714;37.756;2023-10-09T07:07:13;14.91;59.27
75380;HTU21D;65641;44.714;37.756;2023-10-09T07:08:19;15.00;59.02
75380;HTU21D;65641;44.714;37.756;2023-10-09T07:09:35;15.09;57.83
75380;HTU21D;65641;44.714;37.756;2023-10-09T07:11:00;15.13;57.37
75380;HTU21D;65641;44.714;37.756;2023-10-09T07:12:27;15.12;58.24
75380;HTU21D;65641;44.714;37.756;2023-10-09T07:13:31;15.09;57.56
75380;HTU21D;65641;44.714;37.756;2023-10-09T07:14:40;15.07;58.09
75380;HTU21D;65641;44.714;37.756;2023-10-09T07:15:44;15.03;57.91
75380;HTU21D;65641;44.714;37.756;2023-10-09T07:17:08;14.96;58.18
75380;HTU21D;65641;44.714;37.756;2023-10-09T07:18:46;14.94;58.42
75380;HTU21D;65641;44.714;37.756;2023-10-09T07:19:53;14.95;58.48
75380;HTU21D;65641;44.714;37.756;2023-10-09T07:20:58;14.94;58.45
75380;HTU21D;65641;44.714;37.756;2023-10-09T07:22:04;14.94;58.59
75380;HTU21D;65641;44.714;37.756;2023-10-09T07:23:22;14.97;58.64
75380;HTU21D;65641;44.714;37.756;2023-10-09T07:24:26;14.98;58.58
75380;HTU21D;65641;44.714;37.756;2023-10-09T07:25:44;15.02;58.73
75380;HTU21D;65641;44.714;37.756;2023-10-09T07:26:58;15.07;58.61
75380;HTU21D;65641;44.714;37.756;2023-10-09T07:28:10;15.08;58.32
75380;HTU21D;65641;44.714;37.756;2023-10-09T07:29:32;15.11;58.26
75380;HTU21D;65641;44.714;37.756;2023-10-09T07:30:51;15.14;57.42
75380;HTU21D;65641;44.714;37.756;2023-10-09T07:32:02;15.15;57.26
75380;HTU21D;65641;44.714;37.756;2023-10-09T07:33:16;15.14;57.64
75380;HTU21D;65641;44.714;37.756;2023-10-09T07:34:19;15.14;57.36
75380;HTU21D;65641;44.714;37.756;2023-10-09T07:35:41;15.17;57.40
75380;HTU21D;65641;44.714;37.756;2023-10-09T07:36:48;15.21;57.39
75380;HTU21D;65641;44.714;37.756;2023-10-09T07:37:52;15.24;57.06
75380;HTU21D;65641;44.714;37.756;2023-10-09T07:38:56;15.25;56.49
75380;HTU21D;65641;44.714;37.756;2023-10-09T07:40:02;15.27;56.84
75380;HTU21D;65641;44.714;37.756;2023-10-09T07:41:10;15.27;56.65
75380;HTU21D;65641;44.714;37.756;2023-10-09T07:42:14;15.31;56.84
75380;HTU21D;65641;44.714;37.756;2023-10-09T07:43:38;15.36;56.91
75380;HTU21D;65641;44.714;37.756;2023-10-09T07:44:49;15.40;56.62
75380;HTU21D;65641;44.714;37.756;2023-10-09T07:46:02;15.43;56.16
75380;HTU21D;65641;44.714;37.756;2023-10-09T07:47:26;15.44;56.30
75380;HTU21D;65641;44.714;37.756;2023-10-09T07:48:49;15.47;56.21
75380;HTU21D;65641;44.714;37.756;2023-10-09T07:49:55;15.48;56.36
75380;HTU21D;65641;44.714;37.756;2023-10-09T07:51:02;15.51;55.65
75380;HTU21D;65641;44.714;37.756;2023-10-09T07:52:15;15.53;56.03
75380;HTU21D;65641;44.714;37.756;2023-10-09T07:53:19;15.59;55.97
75380;HTU21D;65641;44.714;37.756;2023-10-09T07:54:29;15.62;55.15
75380;HTU21D;65641;44.714;37.756;2023-10-09T07:55:39;15.67;55.35
75380;HTU21D;65641;44.714;37.756;2023-10-09T07:56:49;15.72;55.16
75380;HTU21D;65641;44.714;37.756;2023-10-09T07:57:56;15.78;55.02
75380;HTU21D;65641;44.714;37.756;2023-10-09T07:59:00;15.85;54.95
75380;HTU21D;65641;44.714;37.756;2023-10-09T08:00:04;15.90;54.61
75380;HTU21D;65641;44.714;37.756;2023-10-09T08:01:40;15.95;54.37
75380;HTU21D;65641;44.714;37.756;2023-10-09T08:02:55;15.99;54.62
75380;HTU21D;65641;44.714;37.756;2023-10-09T08:04:04;16.03;54.52
75380;HTU21D;65641;44.714;37.756;2023-10-09T08:05:14;16.08;53.95
75380;HTU21D;65641;44.714;37.756;2023-10-09T08:06:26;16.05;53.04
75380;HTU21D;65641;44.714;37.756;2023-10-09T08:07:42;16.05;53.33
75380;HTU21D;65641;44.714;37.756;2023-10-09T08:09:10;16.00;53.93
75380;HTU21D;65641;44.714;37.756;2023-10-09T08:10:25;16.01;54.36
75380;HTU21D;65641;44.714;37.756;2023-10-09T08:11:32;16.05;54.37
75380;HTU21D;65641;44.714;37.756;2023-10-09T08:12:46;16.12;54.26
75380;HTU21D;65641;44.714;37.756;2023-10-09T08:13:51;16.19;54.23
75380;HTU21D;65641;44.714;37.756;2023-10-09T08:15:05;16.31;53.91
75380;HTU21D;65641;44.714;37.756;2023-10-09T08:16:26;16.48;53.52
75380;HTU21D;65641;44.714;37.756;2023-10-09T08:17:39;16.63;53.11
75380;HTU21D;65641;44.714;37.756;2023-10-09T08:18:43;16.67;52.50
75380;HTU21D;65641;44.714;37.756;2023-10-09T08:19:50;16.67;52.88
75380;HTU21D;65641;44.714;37.756;2023-10-09T08:20:58;16.66;53.15
75380;HTU21D;65641;44.714;37.756;2023-10-09T08:22:01;16.65;53.18
75380;HTU21D;65641;44.714;37.756;2023-10-09T08:23:24;16.61;53.47
75380;HTU21D;65641;44.714;37.756;2023-10-09T08:24:36;16.58;53.60
75380;HTU21D;65641;44.714;37.756;2023-10-09T08:26:03;16.55;53.27
75380;HTU21D;65641;44.714;37.756;2023-10-09T08:27:16;16.49;53.88
75380;HTU21D;65641;44.714;37.756;2023-10-09T08:28:35;16.46;54.02
75380;HTU21D;65641;44.714;37.756;2023-10-09T08:29:48;16.42;54.12
75380;HTU21D;65641;44.714;37.756;2023-10-09T08:30:53;16.36;54.04
75380;HTU21D;65641;44.714;37.756;2023-10-09T08:31:56;16.31;54.39
75380;HTU21D;65641;44.714;37.756;2023-10-09T08:33:41;16.18;54.62
75380;HTU21D;65641;44.714;37.756;2023-10-09T08:34:47;16.10;54.97
75380;HTU21D;65641;44.714;37.756;2023-10-09T08:35:59;16.04;55.11
75380;HTU21D;65641;44.714;37.756;2023-10-09T08:37:08;16.07;55.35
75380;HTU21D;65641;44.714;37.756;2023-10-09T08:38:17;16.13;54.92
75380;HTU21D;65641;44.714;37.756;2023-10-09T08:39:27;16.14;54.49
75380;HTU21D;65641;44.714;37.756;2023-10-09T08:40:41;16.15;54.59
75380;HTU21D;65641;44.714;37.756;2023-10-09T08:41:46;16.18;54.88
75380;HTU21D;65641;44.714;37.756;2023-10-09T08:42:53;16.19;54.83
75380;HTU21D;65641;44.714;37.756;2023-10-09T08:43:57;16.17;54.75
75380;HTU21D;65641;44.714;37.756;2023-10-09T08:45:02;16.13;54.78
75380;HTU21D;65641;44.714;37.756;2023-10-09T08:46:08;16.10;54.35
75380;HTU21D;65641;44.714;37.756;2023-10-09T08:47:12;16.05;54.81
75380;HTU21D;65641;44.714;37.756;2023-10-09T08:48:16;15.99;54.94
75380;HTU21D;65641;44.714;37.756;2023-10-09T08:49:21;15.92;55.30
75380;HTU21D;65641;44.714;37.756;2023-10-09T08:50:25;15.87;55.42
75380;HTU21D;65641;44.714;37.756;2023-10-09T08:51:32;15.83;55.00
75380;HTU21D;65641;44.714;37.756;2023-10-09T08:52:39;15.78;55.07
75380;HTU21D;65641;44.714;37.756;2023-10-09T08:53:42;15.76;55.16
75380;HTU21D;65641;44.714;37.756;2023-10-09T08:54:48;15.80;55.45
75380;HTU21D;65641;44.714;37.756;2023-10-09T08:55:52;15.92;55.19
75380;HTU21D;65641;44.714;37.756;2023-10-09T08:56:56;16.04;55.09
75380;HTU21D;65641;44.714;37.756;2023-10-09T08:58:01;16.14;54.87
75380;HTU21D;65641;44.714;37.756;2023-10-09T08:59:08;16.15;54.68
75380;HTU21D;65641;44.714;37.756;2023-10-09T09:00:18;16.12;54.81
75380;HTU21D;65641;44.714;37.756;2023-10-09T09:01:26;16.11;54.82
75380;HTU21D;65641;44.714;37.756;2023-10-09T09:02:38;16.10;54.97
75380;HTU21D;65641;44.714;37.756;2023-10-09T09:03:42;16.04;54.98
75380;HTU21D;65641;44.714;37.756;2023-10-09T09:04:48;16.03;55.03
75380;HTU21D;65641;44.714;37.756;2023-10-09T09:06:00;16.04;54.90
75380;HTU21D;65641;44.714;37.756;2023-10-09T09:07:28;16.10;54.93
75380;HTU21D;65641;44.714;37.756;2023-10-09T09:08:35;16.15;54.44
75380;HTU21D;65641;44.714;37.756;2023-10-09T09:09:57;16.14;54.52
75380;HTU21D;65641;44.714;37.756;2023-10-09T09:11:13;16.17;54.10
75380;HTU21D;65641;44.714;37.756;2023-10-09T09:12:27;16.27;53.97
75380;HTU21D;65641;44.714;37.756;2023-10-09T09:13:34;16.35;52.78
75380;HTU21D;65641;44.714;37.756;2023-10-09T09:14:38;16.42;53.65
75380;HTU21D;65641;44.714;37.756;2023-10-09T09:15:46;16.48;52.88
75380;HTU21D;65641;44.714;37.756;2023-10-09T09:16:50;16.60;51.83
75380;HTU21D;65641;44.714;37.756;2023-10-09T09:18:08;16.73;52.25
75380;HTU21D;65641;44.714;37.756;2023-10-09T09:19:12;16.86;51.20
75380;HTU21D;65641;44.714;37.756;2023-10-09T09:20:24;17.02;51.19
75380;HTU21D;65641;44.714;37.756;2023-10-09T09:21:39;17.13;51.21
75380;HTU21D;65641;44.714;37.756;2023-10-09T09:22:54;17.28;50.17
75380;HTU21D;65641;44.714;37.756;2023-10-09T09:24:04;17.38;50.39
75380;HTU21D;65641;44.714;37.756;2023-10-09T09:25:43;17.60;50.12
75380;HTU21D;65641;44.714;37.756;2023-10-09T09:27:06;17.76;50.24
75380;HTU21D;65641;44.714;37.756;2023-10-09T09:28:16;17.85;49.10
75380;HTU21D;65641;44.714;37.756;2023-10-09T09:30:40;17.83;49.34
75380;HTU21D;65641;44.714;37.756;2023-10-09T09:31:54;17.80;49.02
75380;HTU21D;65641;44.714;37.756;2023-10-09T09:34:44;17.77;49.41
75380;HTU21D;65641;44.714;37.756;2023-10-09T09:36:00;17.83;49.09
75380;HTU21D;65641;44.714;37.756;2023-10-09T09:37:10;17.92;49.09
75380;HTU21D;65641;44.714;37.756;2023-10-09T09:38:17;17.96;49.34
75380;HTU21D;65641;44.714;37.756;2023-10-09T09:39:26;17.96;49.07
75380;HTU21D;65641;44.714;37.756;2023-10-09T09:40:44;17.91;48.95
75380;HTU21D;65641;44.714;37.756;2023-10-09T09:41:48;17.88;49.39
75380;HTU21D;65641;44.714;37.756;2023-10-09T09:42:59;17.91;49.11
75380;HTU21D;65641;44.714;37.756;2023-10-09T09:44:09;17.99;49.52
75380;HTU21D;65641;44.714;37.756;2023-10-09T09:45:20;18.10;49.35
75380;HTU21D;65641;44.714;37.756;2023-10-09T09:46:34;18.24;48.78
75380;HTU21D;65641;44.714;37.756;2023-10-09T09:47:38;18.33;48.42
75380;HTU21D;65641;44.714;37.756;2023-10-09T09:48:44;18.41;47.86
75380;HTU21D;65641;44.714;37.756;2023-10-09T09:49:51;18.36;47.34
75380;HTU21D;65641;44.714;37.756;2023-10-09T09:51:05;18.24;47.49
75380;HTU21D;65641;44.714;37.756;2023-10-09T09:52:11;18.08;47.67
75380;HTU21D;65641;44.714;37.756;2023-10-09T09:53:15;17.94;48.41
75380;HTU21D;65641;44.714;37.756;2023-10-09T09:54:22;17.87;48.65
75380;HTU21D;65641;44.714;37.756;2023-10-09T09:55:33;17.84;49.11
75380;HTU21D;65641;44.714;37.756;2023-10-09T09:56:39;17.88;48.82
75380;HTU21D;65641;44.714;37.756;2023-10-09T09:57:44;17.87;48.99
75380;HTU21D;65641;44.714;37.756;2023-10-09T09:58:50;17.92;49.37
75380;HTU21D;65641;44.714;37.756;2023-10-09T09:59:57;18.02;49.10
75380;HTU21D;65641;44.714;37.756;2023-10-09T10:01:03;18.11;49.22
75380;HTU21D;65641;44.714;37.756;2023-10-09T10:02:34;18.21;49.04
75380;HTU21D;65641;44.714;37.756;2023-10-09T10:03:42;18.28;47.89
75380;HTU21D;65641;44.714;37.756;2023-10-09T10:04:52;18.36;48.31